Time;durP1;ratioP1;P1;durP2;ratioP2;P2;SDS_P1;SDS_P2;PMS_P1;PMS_P2;Temp;Humidity;BMP_temperature;BMP_pressure;BME280_temperature;BME280_humidity;BME280_pressure;Samples;Min_cycle;Max_cycle;Signal;HPM_P1;HPM_P2
2021/10/25 00:01:29;;;;;;;6.60;4.13;;;1.20;99.90;;;2.19;100.00;98720.13;5021836;28;20501;-77
2021/10/25 00:03:59;;;;;;;7.70;3.73;;;1.20;99.90;;;2.15;100.00;98721.31;5023664;28;20521;-77
2021/10/25 00:06:27;;;;;;;4.43;3.30;;;1.00;99.90;;;2.19;100.00;98714.97;5017958;28;20497;-77
2021/10/25 00:08:56;;;;;;;6.57;3.57;;;1.20;99.90;;;2.22;100.00;98717.28;5019962;28;20451;-77
2021/10/25 00:11:24;;;;;;;3.87;3.43;;;1.30;99.90;;;2.22;100.00;98719.09;5020425;28;20454;-77
2021/10/25 00:13:54;;;;;;;6.33;3.97;;;1.30;99.90;;;2.17;100.00;98716.84;5019419;28;20534;-77
2021/10/25 00:16:23;;;;;;;6.10;3.23;;;1.20;99.90;;;2.03;100.00;98711.94;5019754;28;20515;-76
2021/10/25 00:18:52;;;;;;;5.60;3.40;;;1.00;99.90;;;1.99;100.00;98718.25;5022540;28;20460;-77
2021/10/25 00:21:22;;;;;;;5.20;3.27;;;1.00;99.90;;;1.88;100.00;98710.50;5024474;28;20490;-77
2021/10/25 00:23:51;;;;;;;4.13;3.40;;;0.90;99.90;;;1.86;100.00;98700.31;5019566;28;20471;-77
2021/10/25 00:26:20;;;;;;;4.80;3.97;;;0.80;99.90;;;1.93;100.00;98701.50;5019896;28;20467;-77
2021/10/25 00:28:48;;;;;;;4.80;3.93;;;0.90;99.90;;;1.97;100.00;98705.50;5022585;28;20464;-77
2021/10/25 00:31:18;;;;;;;9.90;3.80;;;1.00;99.90;;;1.89;100.00;98712.16;5020150;28;20462;-77
2021/10/25 00:33:47;;;;;;;16.23;3.53;;;0.90;99.90;;;1.89;100.00;98707.81;5027126;28;21155;-77
2021/10/25 00:36:16;;;;;;;4.13;3.17;;;0.90;99.90;;;1.91;100.00;98702.53;5024390;28;20505;-77
2021/10/25 00:38:45;;;;;;;4.90;3.70;;;1.00;99.90;;;1.92;100.00;98697.28;5019903;28;20731;-77
2021/10/25 00:41:15;;;;;;;4.17;3.30;;;1.00;99.90;;;1.84;100.00;98694.44;5020913;28;20495;-77
2021/10/25 00:43:44;;;;;;;4.27;3.33;;;0.80;99.90;;;1.84;100.00;98698.81;5021562;28;20948;-77
2021/10/25 00:46:13;;;;;;;3.60;3.00;;;0.90;99.90;;;1.71;100.00;98698.06;5018617;28;20504;-77
2021/10/25 00:48:50;;;;;;;4.50;2.67;;;0.80;99.90;;;1.76;100.00;98701.97;5019659;28;20462;-77
2021/10/25 00:51:19;;;;;;;9.00;3.33;;;0.80;99.90;;;1.76;100.00;98695.97;5020558;28;20516;-77
2021/10/25 00:53:54;;;;;;;3.63;3.17;;;0.70;99.90;;;1.78;100.00;98696.66;5023837;28;20526;-76
2021/10/25 00:56:35;;;;;;;5.13;3.27;;;0.80;99.90;;;1.82;100.00;98695.50;5017945;28;20486;-76
2021/10/25 00:59:03;;;;;;;5.50;3.30;;;0.90;99.90;;;1.85;100.00;98697.84;5022215;28;20463;-77
2021/10/25 01:01:39;;;;;;;4.30;2.87;;;1.00;99.90;;;1.82;100.00;98695.50;5015143;28;20516;-77
2021/10/25 01:04:13;;;;;;;9.30;3.27;;;0.90;99.90;;;1.78;100.00;98686.34;5021871;28;20548;-76
2021/10/25 01:06:42;;;;;;;4.33;2.90;;;0.80;99.90;;;1.69;100.00;98687.06;5013690;28;20468;-77
2021/10/25 01:09:12;;;;;;;8.30;3.40;;;0.70;99.90;;;1.73;100.00;98680.75;5017616;28;21033;-76
2021/10/25 01:11:43;;;;;;;4.47;3.10;;;0.80;99.90;;;1.82;100.00;98687.78;5022529;28;20466;-77
2021/10/25 01:14:11;;;;;;;8.00;2.67;;;0.90;99.90;;;1.71;100.00;98683.44;5025409;28;20520;-77
2021/10/25 01:16:43;;;;;;;2.57;2.20;;;0.80;99.90;;;1.73;100.00;98684.16;5021375;28;20485;-77
2021/10/25 01:19:15;;;;;;;3.10;2.80;;;0.80;99.90;;;1.67;100.00;98682.00;5023989;28;20989;-77
2021/10/25 01:21:45;;;;;;;4.77;2.90;;;0.80;99.90;;;1.64;100.00;98684.00;5018889;28;20491;-77
2021/10/25 01:24:14;;;;;;;3.60;2.80;;;0.70;99.90;;;1.60;100.00;98682.59;5018333;28;20470;-77
2021/10/25 01:26:46;;;;;;;3.10;2.37;;;0.70;99.90;;;1.64;100.00;98676.25;5017864;28;20474;-77
2021/10/25 01:29:18;;;;;;;3.50;2.50;;;0.70;99.90;;;1.58;100.00;98677.56;5013396;28;20463;-77
2021/10/25 01:31:48;;;;;;;5.73;3.67;;;0.50;99.90;;;1.53;100.00;98670.16;5017865;28;20462;-77
2021/10/25 01:34:17;;;;;;;4.27;2.83;;;0.60;99.90;;;1.45;100.00;98666.53;5018679;28;20486;-76
2021/10/25 01:36:50;;;;;;;5.30;3.10;;;0.40;99.90;;;1.51;100.00;98674.63;5020821;28;20495;-76
2021/10/25 01:39:19;;;;;;;4.10;3.00;;;0.50;99.90;;;1.47;100.00;98669.81;5016988;28;20498;-77
2021/10/25 01:41:47;;;;;;;3.13;2.83;;;0.50;99.90;;;1.47;100.00;98670.63;5023585;28;20454;-77
2021/10/25 01:44:16;;;;;;;4.17;2.83;;;0.60;99.90;;;1.55;100.00;98674.38;5016302;28;20546;-77
2021/10/25 01:46:46;;;;;;;3.57;3.00;;;0.70;99.90;;;1.52;100.00;98671.13;5023731;28;20477;-77
2021/10/25 01:49:15;;;;;;;5.70;3.30;;;0.70;99.90;;;1.52;100.00;98670.28;5025158;28;20470;-77
2021/10/25 01:51:48;;;;;;;3.50;3.10;;;0.60;99.90;;;1.46;100.00;98668.97;5022576;28;20479;-78
2021/10/25 01:54:17;;;;;;;3.13;2.70;;;0.50;99.90;;;1.45;100.00;98667.38;5026179;28;20473;-76
2021/10/25 01:56:46;;;;;;;3.73;2.90;;;0.50;99.90;;;1.43;100.00;98664.06;5023098;28;20963;-77
2021/10/25 01:59:18;;;;;;;5.60;2.80;;;0.50;99.90;;;1.39;100.00;98660.06;5023769;28;20524;-77
2021/10/25 02:01:47;;;;;;;7.70;2.80;;;0.40;99.90;;;1.39;100.00;98656.66;5017136;28;20459;-77
2021/10/25 02:04:16;;;;;;;5.17;2.90;;;0.40;99.90;;;1.37;100.00;98653.41;5021560;28;20470;-76
2021/10/25 02:06:45;;;;;;;5.20;3.27;;;0.50;99.90;;;1.29;100.00;98648.81;5022462;28;20479;-76
2021/10/25 02:09:15;;;;;;;5.80;3.20;;;0.30;99.90;;;1.30;100.00;98652.22;5023240;28;20467;-76
2021/10/25 02:11:43;;;;;;;5.13;3.60;;;0.30;99.90;;;1.31;100.00;98654.69;5017860;28;20527;-76
2021/10/25 02:14:12;;;;;;;4.07;3.03;;;0.30;99.90;;;1.28;100.00;98649.75;5016243;28;20672;-76
2021/10/25 02:16:41;;;;;;;5.77;3.57;;;0.30;99.90;;;1.19;100.00;98665.88;5024838;28;20874;-76
2021/10/25 02:19:13;;;;;;;3.83;2.70;;;0.20;99.90;;;1.22;100.00;98670.81;5021012;28;20495;-77
2021/10/25 02:21:44;;;;;;;4.83;3.00;;;0.20;99.90;;;1.31;100.00;98667.56;5019532;28;20453;-76
2021/10/25 02:24:14;;;;;;;3.30;3.00;;;0.40;99.90;;;1.36;100.00;98668.03;5024556;28;20467;-77
2021/10/25 02:26:48;;;;;;;4.43;2.73;;;0.50;99.90;;;1.30;100.00;98665.91;5017903;28;20470;-76
2021/10/25 02:29:16;;;;;;;3.93;3.03;;;0.40;99.90;;;1.30;100.00;98663.34;5021258;28;20455;-76
2021/10/25 02:31:45;;;;;;;5.80;3.27;;;0.40;99.90;;;1.26;100.00;98661.91;5024828;28;20559;-76
2021/10/25 02:34:14;;;;;;;5.33;2.80;;;0.40;99.90;;;1.29;100.00;98666.00;5020783;28;20460;-77
2021/10/25 02:36:43;;;;;;;3.67;3.10;;;0.40;99.90;;;1.28;100.00;98660.06;5023055;28;20460;-76
2021/10/25 02:39:18;;;;;;;6.53;3.70;;;0.30;99.90;;;1.24;100.00;98658.66;5024128;28;20462;-76
2021/10/25 02:41:47;;;;;;;4.33;3.13;;;0.30;99.90;;;1.16;100.00;98650.66;5023254;28;20520;-76
2021/10/25 02:44:16;;;;;;;7.70;3.60;;;0.20;99.90;;;1.06;100.00;98659.16;5028375;28;21016;-77
2021/10/25 02:46:44;;;;;;;6.47;2.80;;;0.10;99.90;;;1.05;100.00;98657.53;5021755;28;20492;-77
2021/10/25 02:49:16;;;;;;;4.57;3.50;;;0.10;99.90;;;1.13;100.00;98653.47;5018905;28;20466;-77
2021/10/25 02:51:45;;;;;;;9.33;3.10;;;0.10;99.90;;;1.18;100.00;98643.63;5021635;28;20489;-77
2021/10/25 02:54:16;;;;;;;5.43;3.17;;;0.30;99.90;;;1.24;100.00;98642.38;5024427;28;20467;-77
2021/10/25 02:56:50;;;;;;;4.90;3.40;;;0.30;99.90;;;1.24;100.00;98638.03;5015672;28;20974;-77
2021/10/25 02:59:57;;;;;;;3.33;3.03;;;0.30;99.90;;;1.23;100.00;98641.53;5019978;28;20511;-77
2021/10/25 03:02:26;;;;;;;3.63;2.63;;;0.40;99.90;;;1.21;100.00;98643.44;5017256;28;20469;-77
2021/10/25 03:04:55;;;;;;;3.63;3.27;;;0.30;99.90;;;1.21;100.00;98640.84;5024666;28;20485;-77
2021/10/25 03:07:23;;;;;;;5.83;3.13;;;0.30;99.90;;;1.19;100.00;98637.56;5013724;28;20463;-76
2021/10/25 03:09:53;;;;;;;4.30;3.07;;;0.30;99.90;;;1.12;100.00;98638.94;5021028;28;20513;-77
2021/10/25 03:12:22;;;;;;;4.63;3.00;;;0.20;99.90;;;1.13;100.00;98645.75;5024443;28;20462;-77
2021/10/25 03:14:51;;;;;;;7.17;2.83;;;0.20;99.90;;;1.18;100.00;98641.06;5018663;28;20470;-77
2021/10/25 03:17:41;;;;;;;5.83;3.60;;;0.30;99.90;;;1.17;100.00;98643.75;5017510;28;20556;-77
2021/10/25 03:20:12;;;;;;;4.43;2.87;;;0.20;99.90;;;1.19;100.00;98653.00;5019789;28;20463;-77
2021/10/25 03:22:42;;;;;;;3.47;2.90;;;0.30;99.90;;;1.17;100.00;98649.75;5019782;28;20565;-77
2021/10/25 03:25:45;;;;;;;26.80;12.50;;;0.30;99.90;;;1.20;100.00;98646.94;5024204;28;20954;-85
2021/10/25 03:28:15;;;;;;;4.30;3.13;;;0.30;99.90;;;1.19;100.00;98642.69;5018721;28;20985;-77
2021/10/25 03:30:44;;;;;;;4.13;3.23;;;0.30;99.90;;;1.20;100.00;98636.63;5021772;28;20467;-77
2021/10/25 03:33:33;;;;;;;4.90;3.37;;;0.30;99.90;;;1.24;100.00;98643.19;5016491;28;20467;-77
2021/10/25 03:36:06;;;;;;;6.37;3.47;;;0.40;99.90;;;1.30;100.00;98652.22;5022103;28;20462;-76
2021/10/25 03:38:39;;;;;;;4.90;3.40;;;0.40;99.90;;;1.25;100.00;98642.25;5019413;28;20921;-75
2021/10/25 03:41:14;;;;;;;3.90;3.07;;;0.50;99.90;;;1.21;100.00;98633.13;5020042;28;20495;-76
2021/10/25 03:43:51;;;;;;;2.73;2.53;;;0.40;99.90;;;1.20;100.00;98630.66;5018430;28;20901;-75
2021/10/25 03:46:25;;;;;;;4.83;3.17;;;0.30;99.90;;;1.14;100.00;98628.53;5019062;28;20477;-75
2021/10/25 03:48:57;;;;;;;4.60;3.10;;;0.20;99.90;;;1.17;100.00;98620.59;5019963;28;20470;-75
2021/10/25 03:51:39;;;;;;;5.87;2.77;;;0.30;99.90;;;1.17;100.00;98621.41;5019987;28;20658;-75
2021/10/25 03:54:21;;;;;;;5.47;3.00;;;0.30;99.90;;;1.13;100.00;98622.56;5024557;28;20883;-75
2021/10/25 04:00:26;;;;;;;5.47;3.00;;;0.20;99.90;;;1.12;100.00;98622.66;4976021;28;20460;-76
2021/10/25 04:26:16;;;;;;;3.97;2.90;;;0.20;99.90;;;1.02;100.00;98623.34;5023844;28;20459;-75
2021/10/25 04:28:45;;;;;;;3.53;3.17;;;0.20;99.90;;;1.03;100.00;98619.03;5019911;28;20461;-74
2021/10/25 04:31:15;;;;;;;5.53;2.90;;;0.20;99.90;;;1.01;100.00;98620.88;5025770;28;20460;-74
2021/10/25 04:33:44;;;;;;;4.83;3.20;;;0.30;99.90;;;0.94;100.00;98620.50;5026637;28;20462;-75
2021/10/25 04:36:13;;;;;;;4.40;3.27;;;0.10;99.90;;;1.04;100.00;98625.00;5028819;28;20876;-74
2021/10/25 04:38:54;;;;;;;4.00;3.40;;;0.20;99.90;;;1.03;100.00;98621.59;5028526;28;20544;-74
2021/10/25 04:41:25;;;;;;;4.87;3.40;;;0.20;99.90;;;1.00;100.00;98619.25;5028927;28;20451;-74
2021/10/25 04:44:03;;;;;;;4.10;2.70;;;0.10;99.90;;;0.98;100.00;98621.13;5028623;28;20473;-74
2021/10/25 04:46:51;;;;;;;6.63;3.27;;;0.20;99.90;;;0.99;100.00;98622.75;5023558;28;20489;-74
2021/10/25 04:49:29;;;;;;;4.50;3.33;;;0.10;99.90;;;1.00;100.00;98620.09;5019252;28;20505;-74
2021/10/25 04:51:58;;;;;;;6.13;3.30;;;0.10;99.90;;;1.07;100.00;98610.16;5019374;28;20504;-74
2021/10/25 04:54:26;;;;;;;7.43;3.70;;;0.20;99.90;;;1.06;100.00;98611.06;5028725;28;20934;-74
2021/10/25 04:56:55;;;;;;;4.40;3.00;;;0.20;99.90;;;0.99;100.00;98607.31;5028514;28;20461;-74
2021/10/25 04:59:25;;;;;;;6.40;3.57;;;0.10;99.90;;;1.01;100.00;98606.25;5023359;28;20504;-74
2021/10/25 05:01:55;;;;;;;3.70;3.30;;;0.10;99.90;;;1.07;100.00;98605.00;5025851;28;20456;-74
2021/10/25 05:04:25;;;;;;;5.43;3.60;;;0.20;99.90;;;1.04;100.00;98599.25;5028297;28;21057;-74
2021/10/25 05:06:57;;;;;;;6.57;3.73;;;0.20;99.90;;;1.02;100.00;98601.94;5025300;28;20454;-74
2021/10/25 05:09:39;;;;;;;3.70;2.93;;;0.10;99.90;;;1.01;100.00;98602.84;5017751;28;20467;-74
2021/10/25 05:12:13;;;;;;;3.83;3.00;;;0.10;99.90;;;1.03;100.00;98608.72;5023290;28;20940;-74
2021/10/25 05:14:51;;;;;;;6.13;3.10;;;0.10;99.90;;;0.97;100.00;98604.84;5027783;28;20442;-74
2021/10/25 05:17:22;;;;;;;4.20;3.27;;;0.00;99.90;;;0.95;100.00;98605.91;5022655;28;20936;-74
2021/10/25 05:19:57;;;;;;;4.90;3.03;;;0.00;99.90;;;0.95;100.00;98605.91;5027055;28;21006;-74
2021/10/25 05:22:26;;;;;;;5.87;3.57;;;0.00;99.90;;;0.97;100.00;98606.63;5024353;28;20451;-74
2021/10/25 05:24:56;;;;;;;4.50;3.60;;;0.10;99.90;;;0.93;100.00;98612.94;5031784;28;20465;-74
2021/10/25 05:27:25;;;;;;;6.80;3.30;;;0.00;99.90;;;0.87;100.00;98609.03;5027464;28;20456;-74
2021/10/25 05:29:54;;;;;;;12.67;3.40;;;-0.10;99.90;;;0.88;100.00;98602.94;5033217;28;20446;-74
2021/10/25 05:32:39;;;;;;;3.67;2.93;;;-0.10;99.90;;;0.93;100.00;98600.06;5029513;28;20463;-74
2021/10/25 05:35:08;;;;;;;6.43;3.60;;;0.00;99.90;;;0.90;100.00;98597.72;5029115;28;20453;-74
2021/10/25 05:37:37;;;;;;;4.57;3.60;;;0.00;99.90;;;0.87;100.00;98593.59;5023478;28;20470;-74
2021/10/25 05:40:13;;;;;;;4.70;3.40;;;0.00;99.90;;;0.84;100.00;98593.00;5029629;28;20579;-74
2021/10/25 05:42:44;;;;;;;15.80;5.00;;;-0.10;99.90;;;0.86;100.00;98597.13;5026574;28;20442;-74
2021/10/25 05:45:29;;;;;;;4.67;3.03;;;0.00;99.90;;;0.89;100.00;98601.19;5029965;28;20451;-74
2021/10/25 05:48:02;;;;;;;5.17;3.40;;;0.00;99.90;;;0.88;100.00;98596.97;5025475;28;20450;-74
2021/10/25 05:50:38;;;;;;;5.37;3.07;;;0.00;99.90;;;0.86;100.00;98599.69;5032108;28;20442;-74
2021/10/25 05:53:14;;;;;;;5.90;3.10;;;-0.10;99.90;;;0.88;100.00;98594.41;5027236;28;20526;-74
2021/10/25 05:55:52;;;;;;;4.40;3.40;;;0.00;99.90;;;0.89;100.00;98596.88;5028500;28;20438;-74
2021/10/25 05:58:27;;;;;;;4.07;2.83;;;0.00;99.90;;;0.82;100.00;98589.72;5029484;28;20462;-74
2021/10/25 06:01:08;;;;;;;4.27;3.17;;;-0.10;99.90;;;0.81;100.00;98582.91;5024141;28;20507;-74
2021/10/25 06:03:59;;;;;;;4.00;2.93;;;-0.10;99.90;;;0.81;100.00;98583.75;5029187;28;20465;-74
2021/10/25 06:06:28;;;;;;;8.67;3.30;;;-0.10;99.90;;;0.84;100.00;98577.53;5031891;28;20489;-74
2021/10/25 06:09:00;;;;;;;5.93;3.00;;;-0.10;99.90;;;0.86;100.00;98575.69;5032363;28;20942;-74
2021/10/25 06:11:30;;;;;;;3.77;3.03;;;-0.10;99.90;;;0.84;100.00;98578.38;5028808;28;20522;-74
2021/10/25 06:14:01;;;;;;;4.50;3.13;;;-0.10;99.90;;;0.82;100.00;98589.72;5025750;28;20505;-74
2021/10/25 06:16:38;;;;;;;6.13;3.30;;;-0.10;99.90;;;0.84;100.00;98593.81;5025150;28;20469;-74
2021/10/25 06:19:12;;;;;;;3.30;2.80;;;0.00;99.90;;;0.84;100.00;98598.13;5024673;28;20547;-74
2021/10/25 06:21:41;;;;;;;4.20;3.07;;;0.00;99.90;;;0.83;100.00;98591.38;5027526;28;20466;-74
2021/10/25 06:24:13;;;;;;;6.17;3.50;;;0.00;99.90;;;0.75;100.00;98597.06;5029659;28;20446;-74
2021/10/25 06:26:42;;;;;;;3.87;3.10;;;-0.20;99.90;;;0.79;100.00;98600.25;5026823;28;20443;-74
2021/10/25 06:29:14;;;;;;;5.97;3.27;;;0.00;99.90;;;0.85;100.00;98605.75;5028705;28;20934;-74
2021/10/25 06:31:43;;;;;;;8.43;3.70;;;0.00;99.90;;;0.89;100.00;98612.31;5030251;28;20441;-74
2021/10/25 06:34:20;;;;;;;5.83;3.63;;;0.00;99.90;;;0.90;100.00;98605.44;5030813;28;20442;-74
2021/10/25 06:36:51;;;;;;;6.00;3.67;;;0.00;99.90;;;0.90;100.00;98613.16;5025272;28;20478;-74
2021/10/25 06:39:30;;;;;;;9.10;3.77;;;0.00;99.90;;;0.92;100.00;98613.84;5028977;28;20918;-74
2021/10/25 06:42:00;;;;;;;4.57;3.67;;;0.00;99.90;;;0.94;100.00;98622.25;5031762;28;20505;-74
2021/10/25 06:44:29;;;;;;;7.80;4.40;;;0.00;99.90;;;0.96;100.00;98617.84;5021832;28;20459;-74
2021/10/25 06:46:58;;;;;;;9.80;4.00;;;0.10;99.90;;;0.98;100.00;98615.97;5027799;28;20478;-74
2021/10/25 06:49:37;;;;;;;7.37;3.60;;;0.10;99.90;;;0.97;100.00;98627.22;5029657;28;20455;-74
2021/10/25 06:52:06;;;;;;;6.07;3.23;;;0.10;99.90;;;0.97;100.00;98628.00;5030955;28;20611;-74
2021/10/25 06:54:39;;;;;;;8.10;3.90;;;0.10;99.90;;;0.98;100.00;98627.09;5027724;28;20818;-74
2021/10/25 06:57:15;;;;;;;6.33;3.70;;;0.10;99.90;;;1.01;100.00;98626.03;5027128;28;20454;-74
2021/10/25 06:59:53;;;;;;;5.47;3.90;;;0.10;99.90;;;1.02;100.00;98623.34;5024670;28;20543;-74
2021/10/25 07:02:24;;;;;;;5.10;3.70;;;0.10;99.90;;;1.08;100.00;98627.22;5025564;28;20934;-74
2021/10/25 07:04:54;;;;;;;6.07;4.03;;;0.20;99.90;;;1.10;100.00;98627.94;5030842;28;20452;-74
2021/10/25 07:10:10;;;;;;;7.10;4.20;;;0.20;99.90;;;1.21;100.00;98633.13;5021363;28;20451;-74
2021/10/25 07:12:44;;;;;;;6.87;3.83;;;0.30;99.90;;;1.25;100.00;98637.09;5023751;28;20443;-74
2021/10/25 07:15:16;;;;;;;10.67;4.40;;;0.40;99.90;;;1.30;100.00;98635.00;5020686;28;20471;-74
2021/10/25 07:17:50;;;;;;;9.80;4.93;;;0.40;99.90;;;1.37;100.00;98641.34;5023794;28;20527;-74
2021/10/25 07:20:34;;;;;;;7.63;4.23;;;0.50;99.90;;;1.43;100.00;98643.44;5025150;28;20500;-74
2021/10/25 08:05:42;;;;;;;9.23;4.83;;;1.50;99.90;;;2.34;100.00;98640.72;5014359;28;20447;-74
2021/10/25 08:08:29;;;;;;;6.43;4.70;;;1.50;99.90;;;2.42;100.00;98644.34;5029014;28;20465;-74
2021/10/25 08:11:13;;;;;;;10.57;4.70;;;1.70;99.90;;;2.47;100.00;98631.88;5018658;28;20475;-74
2021/10/25 08:13:47;;;;;;;5.43;4.10;;;1.80;99.90;;;2.54;100.00;98632.22;5017062;28;20503;-74
2021/10/25 08:16:41;;;;;;;10.00;4.87;;;1.80;99.90;;;2.58;100.00;98630.22;5029355;28;20465;-74
2021/10/25 08:19:25;;;;;;;17.97;5.53;;;1.80;99.90;;;2.63;100.00;98625.50;5028144;28;20497;-74
2021/10/25 08:21:57;;;;;;;7.27;4.73;;;1.90;99.90;;;2.68;100.00;98628.53;5030126;28;20482;-74
2021/10/25 08:24:28;;;;;;;8.53;4.53;;;2.00;99.90;;;2.71;100.00;98628.31;5025934;28;20480;-74
2021/10/25 08:26:58;;;;;;;12.03;5.23;;;2.00;99.90;;;2.73;100.00;98632.41;5029185;28;20453;-74
2021/10/25 08:29:27;;;;;;;6.10;4.00;;;2.00;99.90;;;2.80;100.00;98630.13;5027741;28;20442;-74
2021/10/25 08:32:06;;;;;;;9.40;4.70;;;2.10;99.90;;;2.83;100.00;98628.13;5028576;28;20809;-74
2021/10/25 08:34:42;;;;;;;7.67;5.00;;;2.10;99.90;;;2.87;100.00;98626.94;5023153;28;20820;-74
2021/10/25 08:40:00;;;;;;;6.60;4.40;;;2.20;99.90;;;2.95;100.00;98631.50;5019855;28;20493;-74
2021/10/25 08:42:33;;;;;;;9.00;5.00;;;2.20;99.90;;;2.98;100.00;98626.06;5023875;28;20454;-74
2021/10/25 08:45:09;;;;;;;8.80;4.70;;;2.30;99.90;;;3.00;100.00;98624.16;5025727;28;20467;-74
2021/10/25 08:47:43;;;;;;;7.60;4.83;;;2.30;99.90;;;3.04;100.00;98620.41;5025865;28;20491;-74
2021/10/25 08:50:15;;;;;;;8.90;4.97;;;2.30;99.90;;;3.05;100.00;98622.84;5030199;28;20504;-74
2021/10/25 08:52:47;;;;;;;7.23;4.40;;;2.30;99.90;;;3.06;100.00;98613.31;5028586;28;20484;-74
2021/10/25 08:55:18;;;;;;;10.10;4.40;;;2.30;99.90;;;3.08;100.00;98618.38;5027848;28;20448;-74
2021/10/25 08:57:50;;;;;;;8.03;5.07;;;2.30;99.90;;;3.12;100.00;98615.44;5025704;28;20464;-74
2021/10/25 09:00:22;;;;;;;7.03;4.27;;;2.40;99.90;;;3.14;100.00;98608.34;5025910;28;20542;-74
2021/10/25 09:03:00;;;;;;;8.33;5.47;;;2.40;99.90;;;3.20;100.00;98609.59;5032401;28;20812;-74
2021/10/25 09:05:31;;;;;;;6.97;4.43;;;2.40;99.90;;;3.24;100.00;98609.22;5032521;28;20531;-74
2021/10/25 09:08:03;;;;;;;6.33;5.13;;;2.50;99.90;;;3.26;100.00;98604.78;5031958;28;20450;-74
2021/10/25 09:10:36;;;;;;;11.03;5.30;;;2.50;99.90;;;3.27;100.00;98603.81;5026490;28;20460;-74
2021/10/25 09:13:11;;;;;;;8.97;5.50;;;2.50;99.90;;;3.26;100.00;98599.59;5023736;28;20454;-74
2021/10/25 09:15:42;;;;;;;9.27;5.43;;;2.40;99.90;;;3.29;100.00;98594.19;5032600;28;20466;-74
2021/10/25 09:18:13;;;;;;;7.80;5.50;;;2.50;99.90;;;3.33;100.00;98594.75;5027221;28;20471;-74
2021/10/25 09:20:48;;;;;;;7.63;5.70;;;2.50;99.90;;;3.37;100.00;98583.19;5030141;28;20494;-74
2021/10/25 09:23:20;;;;;;;10.30;5.40;;;2.60;99.90;;;3.39;100.00;98584.72;5029557;28;20499;-74
2021/10/25 09:25:53;;;;;;;9.93;5.33;;;2.60;99.90;;;3.43;100.00;98582.69;5030719;28;20446;-74
2021/10/25 09:28:29;;;;;;;6.80;5.00;;;2.60;99.90;;;3.48;100.00;98578.75;5026820;28;21020;-74
2021/10/25 09:31:01;;;;;;;14.50;5.63;;;2.70;99.90;;;3.55;100.00;98586.81;5030931;28;20446;-74
2021/10/25 09:33:35;;;;;;;9.87;5.30;;;2.80;99.90;;;3.61;100.00;98582.91;5030879;28;20442;-74
2021/10/25 09:36:09;;;;;;;9.83;4.83;;;2.90;99.90;;;3.65;100.00;98579.09;5020470;28;20451;-74
2021/10/25 09:38:48;;;;;;;7.00;5.00;;;2.90;99.90;;;3.68;100.00;98577.06;5025081;28;20438;-74
2021/10/25 09:49:55;;;;;;;7.53;5.23;;;3.10;99.90;;;3.91;100.00;98575.09;5029077;28;20465;-74
2021/10/25 09:52:30;;;;;;;9.43;5.27;;;3.10;99.90;;;3.97;100.00;98574.56;5027370;28;20470;-74
2021/10/25 09:55:06;;;;;;;8.83;5.57;;;3.30;99.90;;;4.03;100.00;98566.25;5029463;28;20926;-74
2021/10/25 09:57:43;;;;;;;11.27;6.57;;;3.30;99.90;;;4.12;100.00;98562.06;5024016;28;20454;-74
2021/10/25 10:00:16;;;;;;;9.03;6.43;;;3.40;99.90;;;4.20;100.00;98570.00;5027781;28;20461;-74
2021/10/25 10:02:46;;;;;;;20.17;6.67;;;3.50;99.90;;;4.27;100.00;98561.53;5026671;28;20434;-74
2021/10/25 10:05:17;;;;;;;9.87;6.67;;;3.60;99.90;;;4.34;100.00;98561.84;5031988;28;20796;-74
2021/10/25 10:07:46;;;;;;;21.70;6.70;;;3.70;99.90;;;4.41;100.00;98566.31;5030395;28;20800;-74
2021/10/25 10:10:19;;;;;;;12.83;7.10;;;3.70;99.90;;;4.47;100.00;98568.41;5032153;28;20455;-74
2021/10/25 10:12:51;;;;;;;10.13;6.57;;;3.80;99.90;;;4.53;100.00;98567.84;5022048;28;20446;-74
2021/10/25 10:15:24;;;;;;;12.77;7.70;;;3.90;99.90;;;4.63;100.00;98572.19;5026123;28;20518;-74
2021/10/25 10:18:00;;;;;;;15.53;8.20;;;4.00;99.90;;;4.69;100.00;98566.47;5027584;28;20514;-74
2021/10/25 10:20:35;;;;;;;12.07;6.70;;;4.00;99.90;;;4.78;100.00;98563.06;5026855;28;20448;-74
2021/10/25 10:23:10;;;;;;;12.27;6.90;;;4.10;99.90;;;4.85;100.00;98562.38;5031751;28;20464;-74
2021/10/25 10:25:49;;;;;;;12.03;6.17;;;4.30;99.90;;;4.95;100.00;98568.38;5024732;28;20920;-74
2021/10/25 10:28:21;;;;;;;11.07;6.57;;;4.30;99.90;;;5.03;100.00;98562.50;5032154;28;20502;-74
2021/10/25 10:30:56;;;;;;;10.30;6.47;;;4.50;99.90;;;5.14;100.00;98562.31;5031843;28;20532;-74
2021/10/25 10:33:34;;;;;;;9.57;5.90;;;4.60;99.90;;;5.24;100.00;98562.31;5031801;28;20436;-74
2021/10/25 10:36:17;;;;;;;12.67;5.10;;;4.70;99.90;;;5.33;100.00;98557.09;5025808;28;20450;-74
2021/10/25 10:38:52;;;;;;;11.80;5.57;;;4.80;99.90;;;5.44;100.00;98558.69;5023590;28;20450;-74
2021/10/25 10:41:36;;;;;;;6.93;4.70;;;4.90;99.90;;;5.53;100.00;98553.47;5022850;28;20579;-75
2021/10/25 10:44:07;;;;;;;8.67;5.40;;;5.00;99.90;;;5.61;100.00;98547.56;5028061;28;20499;-74
2021/10/25 10:46:49;;;;;;;7.67;4.67;;;5.20;99.90;;;5.73;100.00;98555.94;5027033;28;20453;-74
2021/10/25 10:49:26;;;;;;;5.40;3.80;;;5.30;99.90;;;5.85;100.00;98542.66;5031578;28;20442;-74
2021/10/25 10:52:17;;;;;;;11.90;4.20;;;5.40;99.90;;;5.99;100.00;98543.97;5028635;28;20886;-74
2021/10/25 10:54:57;;;;;;;6.00;4.00;;;5.50;99.90;;;6.07;100.00;98537.09;5026649;28;20443;-74
2021/10/25 11:00:23;;;;;;;8.37;4.60;;;5.70;99.90;;;6.27;100.00;98535.19;5021456;28;20549;-74
2021/10/25 11:02:54;;;;;;;7.00;4.30;;;5.80;99.90;;;6.39;100.00;98533.16;5030606;28;20516;-74
2021/10/25 11:05:33;;;;;;;8.07;4.23;;;6.00;99.90;;;6.49;100.00;98532.13;5031084;28;20935;-74
2021/10/25 11:08:09;;;;;;;4.93;3.50;;;6.10;99.90;;;6.57;100.00;98532.22;5028783;28;20446;-74
2021/10/25 11:10:40;;;;;;;8.47;4.00;;;6.20;99.90;;;6.67;100.00;98539.09;5025015;28;20492;-74
2021/10/25 11:13:15;;;;;;;6.57;3.20;;;6.30;99.90;;;6.77;100.00;98540.66;5023516;28;20442;-74
2021/10/25 11:16:03;;;;;;;8.77;3.63;;;6.40;99.90;;;6.86;100.00;98538.94;5025162;28;20462;-74
2021/10/25 11:18:36;;;;;;;4.97;3.70;;;6.50;99.90;;;6.94;100.00;98541.59;5023518;28;20471;-74
2021/10/25 11:21:30;;;;;;;3.10;2.77;;;6.50;99.90;;;7.03;100.00;98527.69;5026359;28;20543;-74
2021/10/25 11:24:03;;;;;;;3.43;2.27;;;6.60;99.90;;;7.12;100.00;98531.94;5024073;28;20450;-75
2021/10/25 11:26:36;;;;;;;5.73;2.70;;;6.80;99.90;;;7.23;100.00;98521.28;5031252;28;20931;-73
2021/10/25 11:29:11;;;;;;;6.37;3.00;;;6.90;99.90;;;7.32;100.00;98520.41;5030721;28;20449;-72
2021/10/25 11:31:43;;;;;;;4.50;2.30;;;6.90;99.90;;;7.40;100.00;98512.59;5022844;28;20450;-73
2021/10/25 11:34:20;;;;;;;2.90;2.60;;;7.00;99.90;;;7.48;100.00;98512.66;5022299;28;20809;-73
2021/10/25 11:36:56;;;;;;;4.40;2.13;;;7.10;99.90;;;7.62;100.00;98513.03;5024457;28;20450;-73
2021/10/25 11:39:27;;;;;;;3.03;2.00;;;7.30;99.90;;;7.70;100.00;98502.66;5025380;28;20504;-73
2021/10/25 11:41:56;;;;;;;3.20;2.17;;;7.30;99.90;;;7.78;100.00;98500.88;4986993;28;20499;-73
2021/10/25 11:44:24;;;;;;;4.00;2.40;;;7.40;99.90;;;7.91;100.00;98500.44;4987944;28;20514;-73
2021/10/25 11:46:54;;;;;;;2.23;2.03;;;7.60;99.90;;;7.98;100.00;98489.22;4988111;28;20506;-73
2021/10/25 11:49:28;;;;;;;3.40;2.43;;;7.60;99.90;;;8.06;100.00;98484.03;4990066;28;20439;-73
2021/10/25 11:51:58;;;;;;;6.53;2.60;;;7.80;99.90;;;8.28;100.00;98485.25;4986964;28;20468;-73
2021/10/25 11:54:27;;;;;;;6.40;5.07;;;8.00;99.90;;;8.56;100.00;98476.13;4983833;28;20448;-73
2021/10/25 11:57:01;;;;;;;6.93;3.10;;;8.20;99.90;;;8.66;100.00;98469.94;4987175;28;20486;-74
2021/10/25 11:59:30;;;;;;;7.80;2.47;;;8.30;99.90;;;8.93;100.00;98461.75;4984912;28;20514;-75
2021/10/25 12:02:10;;;;;;;4.27;2.43;;;8.60;99.90;;;9.25;100.00;98456.44;4988110;28;20569;-75
2021/10/25 12:04:46;;;;;;;11.83;2.57;;;8.90;99.90;;;9.45;100.00;98451.63;4986934;28;20443;-75
2021/10/25 12:07:15;;;;;;;6.40;2.87;;;9.10;99.90;;;9.56;100.00;98453.88;4989715;28;20849;-74
2021/10/25 12:09:44;;;;;;;4.17;2.67;;;9.30;99.90;;;9.63;100.00;98443.56;4988271;28;20570;-74
2021/10/25 12:12:15;;;;;;;81.93;37.27;;;9.30;99.90;;;9.76;100.00;98435.97;4983797;28;20495;-79
2021/10/25 12:14:45;;;;;;;7.43;3.90;;;9.50;99.90;;;9.90;100.00;98443.06;4987158;28;20820;-75
2021/10/25 12:17:19;;;;;;;6.60;2.93;;;9.60;99.90;;;9.99;100.00;98439.44;4978112;28;20459;-76